createdAt,value
2023-03-18T00:01:07.641Z,4.46
2023-03-18T00:06:14.136Z,4.41
2023-03-18T00:11:21.560Z,4.35
2023-03-18T00:16:25.604Z,4.35
2023-03-18T00:21:29.887Z,4.33
2023-03-18T00:26:33.140Z,4.29
2023-03-18T00:31:38.580Z,4.22
2023-03-18T00:36:42.118Z,4.20
2023-03-18T00:41:45.632Z,4.15
2023-03-18T00:46:49.225Z,4.15
2023-03-18T00:51:53.488Z,4.18
2023-03-18T00:56:58.082Z,4.19
2023-03-18T01:02:01.475Z,4.14
2023-03-18T01:07:04.748Z,4.11
2023-03-18T01:12:11.009Z,4.03
2023-03-18T01:17:14.849Z,3.95
2023-03-18T01:22:18.980Z,3.93
2023-03-18T01:27:22.200Z,3.91
2023-03-18T01:32:25.499Z,3.88
2023-03-18T01:37:29.320Z,3.85
2023-03-18T01:42:32.734Z,3.82
2023-03-18T01:47:35.939Z,3.78
2023-03-18T01:52:39.360Z,3.74
2023-03-18T01:57:44.607Z,3.72
2023-03-18T02:02:49.969Z,3.71
2023-03-18T02:07:53.688Z,3.67
2023-03-18T02:13:04.781Z,3.65
2023-03-18T02:18:11.883Z,3.64
2023-03-18T02:23:30.246Z,3.61
2023-03-18T02:28:36.120Z,3.56
2023-03-18T02:33:43.000Z,3.50
2023-03-18T02:38:47.543Z,3.36
2023-03-18T02:43:50.861Z,3.32
2023-03-18T02:48:55.362Z,3.28
2023-03-18T02:54:10.475Z,3.15
2023-03-18T02:59:14.622Z,3.09
2023-03-18T03:04:19.473Z,3.05
2023-03-18T03:09:23.292Z,3.08
2023-03-18T03:14:26.812Z,3.07
2023-03-18T03:19:31.147Z,3.09
2023-03-18T03:24:34.348Z,3.15
2023-03-18T03:29:37.658Z,3.06
2023-03-18T03:34:41.858Z,3.01
2023-03-18T03:39:45.714Z,2.97
2023-03-18T03:44:49.025Z,2.91
2023-03-18T03:49:52.745Z,2.86
2023-03-18T03:55:00.980Z,2.84
2023-03-18T04:00:07.491Z,2.83
2023-03-18T04:05:12.786Z,2.86
2023-03-18T04:10:18.340Z,2.87
2023-03-18T04:15:22.307Z,2.84
2023-03-18T04:20:25.613Z,2.79
2023-03-18T04:25:29.720Z,2.77
2023-03-18T04:30:34.200Z,2.79
2023-03-18T04:35:38.173Z,2.80
2023-03-18T04:40:43.093Z,2.83
2023-03-18T04:45:46.265Z,2.86
2023-03-18T04:50:50.602Z,2.85
2023-03-18T04:55:53.601Z,2.86
2023-03-18T05:00:57.139Z,2.88
2023-03-18T05:06:00.427Z,2.91
2023-03-18T05:11:03.733Z,3.01
2023-03-18T05:16:07.308Z,3.12
2023-03-18T05:21:11.187Z,3.21
2023-03-18T05:26:14.493Z,3.31
2023-03-18T05:31:17.918Z,3.46
2023-03-18T05:36:21.221Z,3.59
2023-03-18T05:41:25.136Z,3.71
2023-03-18T05:46:29.355Z,3.86
2023-03-18T05:51:32.779Z,4.02
2023-03-18T05:56:35.987Z,4.13
2023-03-18T06:01:39.708Z,4.24
2023-03-18T06:06:43.739Z,4.41
2023-03-18T06:11:46.951Z,4.60
2023-03-18T06:16:50.203Z,4.78
2023-03-18T06:21:53.570Z,4.93
2023-03-18T06:26:56.880Z,5.07
2023-03-18T06:32:00.101Z,5.15
2023-03-18T06:37:04.729Z,5.28
2023-03-18T06:42:08.044Z,5.36
2023-03-18T06:47:11.352Z,5.46
2023-03-18T06:52:14.848Z,5.57
2023-03-18T06:57:18.792Z,5.72
2023-03-18T07:02:25.282Z,5.89
2023-03-18T07:07:29.353Z,6.06
2023-03-18T07:12:32.820Z,6.24
2023-03-18T07:17:37.567Z,6.43
2023-03-18T07:22:40.777Z,6.60
2023-03-18T07:27:44.095Z,6.78
2023-03-18T07:32:47.437Z,6.99
2023-03-18T07:37:50.806Z,7.19
2023-03-18T07:42:54.131Z,7.41
2023-03-18T07:47:58.268Z,7.61
2023-03-18T07:53:01.670Z,7.82
2023-03-18T07:58:05.480Z,7.99
2023-03-18T08:03:09.822Z,8.19
2023-03-18T08:08:12.960Z,8.35
2023-03-18T08:13:16.316Z,8.39
2023-03-18T08:18:19.961Z,8.47
2023-03-18T08:23:24.189Z,8.62
2023-03-18T08:28:27.699Z,8.70
2023-03-18T08:33:31.069Z,8.83
2023-03-18T08:38:35.350Z,9.02
2023-03-18T08:43:39.163Z,9.29
2023-03-18T08:48:42.586Z,9.42
2023-03-18T08:53:45.796Z,9.65
2023-03-18T08:58:49.003Z,9.88
2023-03-18T09:03:52.219Z,10.17
2023-03-18T09:08:55.501Z,10.38
2023-03-18T09:13:58.934Z,10.63
2023-03-18T09:19:02.144Z,10.95
2023-03-18T09:24:07.422Z,11.29
2023-03-18T09:29:11.049Z,11.68
2023-03-18T09:34:14.732Z,12.00
2023-03-18T09:39:22.212Z,12.28
2023-03-18T09:44:31.917Z,12.56
2023-03-18T09:49:39.410Z,12.81
2023-03-18T09:54:45.678Z,13.06
2023-03-18T09:59:59.248Z,13.18
2023-03-18T10:05:11.152Z,13.38
2023-03-18T10:10:39.299Z,13.54
2023-03-18T10:15:57.171Z,13.66
2023-03-18T10:21:36.624Z,13.73
2023-03-18T10:26:50.551Z,13.89
2023-03-18T10:32:17.893Z,14.02
2023-03-18T10:37:47.013Z,13.96
2023-03-18T10:42:53.218Z,13.90
2023-03-18T10:47:59.585Z,14.02
2023-03-18T10:53:08.515Z,14.10
2023-03-18T10:58:17.491Z,14.05
2023-03-18T11:03:30.908Z,14.13
2023-03-18T11:08:37.902Z,14.17
2023-03-18T11:13:47.363Z,14.35
2023-03-18T11:18:52.970Z,14.56
2023-03-18T11:24:21.221Z,14.70
2023-03-18T11:29:34.776Z,14.67
2023-03-18T11:34:37.996Z,14.46
2023-03-18T11:39:41.911Z,14.32
2023-03-18T11:44:45.204Z,14.30
2023-03-18T11:49:48.415Z,14.14
2023-03-18T11:55:12.121Z,14.21
2023-03-18T12:00:46.034Z,14.35
2023-03-18T12:06:26.530Z,14.64
2023-03-18T12:11:35.563Z,14.94
2023-03-18T12:17:17.687Z,15.28
2023-03-18T12:22:23.859Z,15.57
2023-03-18T12:27:51.335Z,15.76
2023-03-18T12:33:22.194Z,15.90
2023-03-18T12:38:54.503Z,16.07
2023-03-18T12:44:28.012Z,16.17
2023-03-18T12:49:54.781Z,16.37
2023-03-18T12:55:12.413Z,16.32
2023-03-18T13:00:33.927Z,16.48
2023-03-18T13:05:41.172Z,16.55
2023-03-18T13:10:50.705Z,16.59
2023-03-18T13:15:54.949Z,16.67
2023-03-18T13:21:00.724Z,16.61
2023-03-18T13:26:07.399Z,16.49
2023-03-18T13:31:29.037Z,16.29
2023-03-18T13:36:57.227Z,16.13
2023-03-18T13:42:10.060Z,16.22
2023-03-18T13:47:21.884Z,16.56
2023-03-18T13:52:42.283Z,16.77
2023-03-18T13:57:57.576Z,16.71
2023-03-18T14:03:27.146Z,16.80
2023-03-18T14:08:39.008Z,16.80
2023-03-18T14:13:43.348Z,16.74
2023-03-18T14:19:03.556Z,16.63
2023-03-18T14:24:15.677Z,16.44
2023-03-18T14:29:28.407Z,16.29
2023-03-18T14:34:33.878Z,16.21
2023-03-18T14:39:51.720Z,16.18
2023-03-18T14:45:00.765Z,16.20
2023-03-18T14:50:15.187Z,16.37
2023-03-18T14:55:27.460Z,16.72
2023-03-18T15:00:36.709Z,17.69
2023-03-18T15:05:43.397Z,19.20
2023-03-18T15:10:50.204Z,20.11
2023-03-18T15:15:57.160Z,19.67
2023-03-18T15:21:10.140Z,18.55
2023-03-18T15:26:29.614Z,17.49
2023-03-18T15:31:41.588Z,17.11
2023-03-18T15:36:56.737Z,16.66
2023-03-18T15:42:02.828Z,16.11
2023-03-18T15:47:31.833Z,15.70
2023-03-18T15:52:39.416Z,15.16
2023-03-18T15:57:43.651Z,14.71
2023-03-18T16:02:47.206Z,14.33
2023-03-18T16:07:52.860Z,13.94
2023-03-18T16:13:01.589Z,13.57
2023-03-18T16:18:04.877Z,13.27
2023-03-18T16:23:08.504Z,12.95
2023-03-18T16:28:21.342Z,12.61
2023-03-18T16:33:25.359Z,12.27
2023-03-18T16:38:30.308Z,11.99
2023-03-18T16:43:33.945Z,11.72
2023-03-18T16:48:37.231Z,11.48
2023-03-18T16:53:40.440Z,11.26
2023-03-18T16:58:44.882Z,11.04
2023-03-18T17:03:48.353Z,10.81
2023-03-18T17:08:52.841Z,10.68
2023-03-18T17:13:56.655Z,10.53
2023-03-18T17:19:00.479Z,10.39
2023-03-18T17:24:03.661Z,10.25
2023-03-18T17:29:08.762Z,10.09
2023-03-18T17:34:15.234Z,9.92
2023-03-18T17:39:18.471Z,9.78
2023-03-18T17:44:21.640Z,9.67
2023-03-18T17:49:27.313Z,9.53
2023-03-18T17:54:33.191Z,9.43
2023-03-18T17:59:36.585Z,9.40
2023-03-18T18:04:40.311Z,9.39
2023-03-18T18:09:43.821Z,9.38
2023-03-18T18:14:47.753Z,9.37
2023-03-18T18:19:51.669Z,9.36
2023-03-18T18:24:58.092Z,9.33
2023-03-18T18:30:01.372Z,9.29
2023-03-18T18:35:04.882Z,9.25
2023-03-18T18:40:10.904Z,9.21
2023-03-18T18:45:19.904Z,9.17
2023-03-18T18:50:35.704Z,9.16
2023-03-18T18:55:38.927Z,9.15
2023-03-18T19:00:42.235Z,9.11
2023-03-18T19:05:47.274Z,9.09
2023-03-18T19:10:52.025Z,9.08
2023-03-18T19:16:01.200Z,9.06
2023-03-18T19:21:04.887Z,9.07
2023-03-18T19:26:13.668Z,9.05
2023-03-18T19:31:24.682Z,9.02
2023-03-18T19:36:31.908Z,8.98
2023-03-18T19:41:35.335Z,8.93
2023-03-18T19:46:39.880Z,8.87
2023-03-18T19:51:43.952Z,8.81
2023-03-18T19:56:47.825Z,8.77
2023-03-18T20:01:51.753Z,8.74
2023-03-18T20:06:56.962Z,8.68
2023-03-18T20:12:05.696Z,8.62
2023-03-18T20:17:25.547Z,8.60
2023-03-18T20:22:36.868Z,8.58
2023-03-18T20:27:40.055Z,8.51
2023-03-18T20:32:44.360Z,8.43
2023-03-18T20:37:47.817Z,8.39
2023-03-18T20:42:52.895Z,8.36
2023-03-18T20:47:56.989Z,8.30
2023-03-18T20:53:00.187Z,8.22
2023-03-18T20:58:04.241Z,8.16
2023-03-18T21:03:22.176Z,8.11
2023-03-18T21:08:27.428Z,8.05
2023-03-18T21:13:39.309Z,7.99
2023-03-18T21:18:45.869Z,7.91
2023-03-18T21:23:50.055Z,7.84
2023-03-18T21:28:53.260Z,7.78
2023-03-18T21:33:57.701Z,7.73
2023-03-18T21:39:01.322Z,7.70
2023-03-18T21:44:04.837Z,7.64
2023-03-18T21:49:10.218Z,7.61
2023-03-18T21:54:20.161Z,7.55
2023-03-18T21:59:23.377Z,7.48
2023-03-18T22:04:26.618Z,7.40
2023-03-18T22:09:30.837Z,7.33
2023-03-18T22:14:35.145Z,7.25
2023-03-18T22:19:38.457Z,7.20
2023-03-18T22:24:41.774Z,7.16
2023-03-18T22:29:45.407Z,7.13
2023-03-18T22:34:49.310Z,7.06
2023-03-18T22:39:53.544Z,7.04
2023-03-18T22:44:57.171Z,7.06
2023-03-18T22:50:00.578Z,7.08
2023-03-18T22:55:15.354Z,7.12
2023-03-18T23:00:26.086Z,7.17
2023-03-18T23:05:29.588Z,7.26
2023-03-18T23:10:33.064Z,7.32
2023-03-18T23:15:36.746Z,7.40
2023-03-18T23:20:40.197Z,7.48
2023-03-18T23:25:45.623Z,7.52
2023-03-18T23:30:53.063Z,7.53
2023-03-18T23:35:56.408Z,7.54
2023-03-18T23:40:59.583Z,7.58
2023-03-18T23:46:04.053Z,7.63
2023-03-18T23:51:07.241Z,7.62
2023-03-18T23:56:12.084Z,7.60
